PWSweather.com
Personal Weather Stations
Station Observations
IPODRAVI2
Croatia, Trnovec BartoloveckiHR

CroatiaTrnovec BartoloveckiHR

Lat: 46.2947, Lon: 16.3989

Elevation: 535

Station Type: Davis Vantage Pro2 plus

http://www.pljusak.com/trnovec1/wx.html

High Low Average
Temperature 46.3°F7.9°F 38.5°F3.6°F 42.1°F5.6°F
Dew Point 42.4°F5.8°F 36.9°F2.7°F 39.8°F4.3°F
Winds 3.4 mph NNW5.5 mph NNW Calm Calm 0.5 mph 0.8 mph
Wind Gusts 9.0 mph14.5 mph -- 1.2 mph1.9 mph
Humidity 96% 82% 92%
Pressure 30.00 in1015.90 in 29.86 in1011.20 in -
Precipitation 0.40 in10.20 in - -
Hour Temp Dew Point Humidity Winds Wind Gusts Pressure Precip Precip Rate Daily Precip Total
12:00 AM 41.8°F5.4°C 40.5°F4.7°C 95% 0.2 mph NNW0.3 kmh NNW -- 29.86 in1011.2 mb 0.00 in0.0 mm 0.00 in/hr0.0 mm/hr 0.00 in0.0 mm
12:10 AM 41.8°F5.4°C 40.5°F4.7°C 95% 1.0 mph NNW1.6 kmh NNW 2.0 mph3.2 kmh 29.86 in1011.2 mb 0.00 in0.0 mm 0.00 in/hr0.0 mm/hr 0.00 in0.0 mm
12:21 AM 41.8°F5.4°C 40.5°F4.7°C 95% Calm Calm 1.0 mph1.6 kmh 29.86 in1011.2 mb 0.01 in0.3 mm 0.05 in/hr1.3 mm/hr 0.01 in0.3 mm
12:30 AM 41.8°F5.4°C 40.5°F4.7°C 95% 0.1 mph NNW0.2 kmh NNW 2.0 mph3.2 kmh 29.86 in1011.2 mb 0.00 in0.0 mm 0.00 in/hr0.0 mm/hr 0.01 in0.3 mm
12:40 AM 41.8°F5.4°C 40.7°F4.8°C 96% Calm Calm -- 29.86 in1011.2 mb 0.00 in0.0 mm 0.00 in/hr0.0 mm/hr 0.01 in0.3 mm
12:50 AM 41.8°F5.4°C 40.7°F4.8°C 96% Calm Calm -- 29.86 in1011.2 mb 0.01 in0.3 mm 0.06 in/hr1.5 mm/hr 0.02 in0.5 mm
01:00 AM 41.9°F5.5°C 40.8°F4.9°C 96% Calm Calm -- 29.87 in1011.5 mb 0.01 in0.3 mm 0.01 in/hr0.3 mm/hr 0.02 in0.5 mm
01:10 AM 41.9°F5.5°C 40.8°F4.9°C 96% 0.1 mph NNW0.2 kmh NNW 2.0 mph3.2 kmh 29.87 in1011.5 mb 0.01 in0.3 mm 0.06 in/hr1.5 mm/hr 0.02 in0.5 mm
01:20 AM 41.9°F5.5°C 40.8°F4.9°C 96% 0.7 mph NNW1.1 kmh NNW 2.0 mph3.2 kmh 29.87 in1011.5 mb 0.00 in0.0 mm 0.00 in/hr0.0 mm/hr 0.02 in0.5 mm
01:30 AM 41.9°F5.5°C 40.8°F4.9°C 96% 0.8 mph NNW1.3 kmh NNW 2.0 mph3.2 kmh 29.87 in1011.5 mb 0.02 in0.5 mm 0.12 in/hr3.0 mm/hr 0.04 in1.0 mm
01:40 AM 41.9°F5.5°C 40.8°F4.9°C 96% 0.1 mph NNW0.2 kmh NNW 1.0 mph1.6 kmh 29.87 in1011.5 mb 0.02 in0.5 mm 0.12 in/hr3.0 mm/hr 0.06 in1.5 mm
01:50 AM 41.9°F5.5°C 40.9°F4.9°C 96% 0.3 mph NNW0.5 kmh NNW 1.0 mph1.6 kmh 29.88 in1011.9 mb 0.02 in0.5 mm 0.12 in/hr3.0 mm/hr 0.07 in1.8 mm
02:00 AM 41.9°F5.5°C 40.8°F4.9°C 96% 0.7 mph NNW1.1 kmh NNW 2.0 mph3.2 kmh 29.88 in1011.9 mb 0.02 in0.5 mm 0.02 in/hr0.5 mm/hr 0.09 in2.3 mm
02:10 AM 41.8°F5.4°C 40.7°F4.8°C 96% 0.5 mph NNW0.8 kmh NNW 2.0 mph3.2 kmh 29.88 in1011.9 mb 0.02 in0.5 mm 0.12 in/hr3.0 mm/hr 0.11 in2.8 mm
02:20 AM 41.8°F5.4°C 40.7°F4.8°C 96% 1.3 mph NNW2.1 kmh NNW 3.0 mph4.8 kmh 29.88 in1011.9 mb 0.02 in0.5 mm 0.12 in/hr3.0 mm/hr 0.12 in3.0 mm
02:30 AM 41.9°F5.5°C 40.8°F4.9°C 96% 0.4 mph NNW0.6 kmh NNW 2.0 mph3.2 kmh 29.88 in1011.9 mb 0.01 in0.3 mm 0.06 in/hr1.5 mm/hr 0.13 in3.3 mm
02:40 AM 41.8°F5.4°C 40.7°F4.8°C 96% 0.8 mph NNW1.3 kmh NNW 3.0 mph4.8 kmh 29.89 in1012.2 mb 0.02 in0.5 mm 0.12 in/hr3.0 mm/hr 0.14 in3.6 mm
02:50 AM 41.8°F5.4°C 40.7°F4.8°C 96% 1.7 mph NNW2.7 kmh NNW 3.0 mph4.8 kmh 29.89 in1012.2 mb 0.02 in0.5 mm 0.12 in/hr3.0 mm/hr 0.15 in3.8 mm
03:00 AM 41.6°F5.3°C 40.5°F4.7°C 96% 1.5 mph NNW2.4 kmh NNW 3.0 mph4.8 kmh 29.89 in1012.2 mb 0.01 in0.3 mm 0.01 in/hr0.3 mm/hr 0.16 in4.1 mm
03:10 AM 41.6°F5.3°C 40.5°F4.7°C 96% 1.9 mph NNW3.1 kmh NNW 3.0 mph4.8 kmh 29.90 in1012.5 mb 0.01 in0.3 mm 0.06 in/hr1.5 mm/hr 0.17 in4.3 mm
03:20 AM 41.6°F5.3°C 40.6°F4.8°C 96% 3.4 mph NNW5.5 kmh NNW 9.0 mph14.5 kmh 29.90 in1012.5 mb 0.02 in0.5 mm 0.12 in/hr3.0 mm/hr 0.18 in4.6 mm
03:30 AM 41.7°F5.4°C 40.6°F4.8°C 96% 1.7 mph NNW2.7 kmh NNW 3.0 mph4.8 kmh 29.90 in1012.5 mb 0.02 in0.5 mm 0.12 in/hr3.0 mm/hr 0.19 in4.8 mm
03:40 AM 41.7°F5.4°C 40.6°F4.8°C 96% 2.3 mph NNW3.7 kmh NNW 4.0 mph6.4 kmh 29.90 in1012.5 mb 0.02 in0.5 mm 0.12 in/hr3.0 mm/hr 0.21 in5.3 mm
03:50 AM 41.7°F5.4°C 40.7°F4.8°C 96% 0.2 mph NNW0.3 kmh NNW 2.0 mph3.2 kmh 29.90 in1012.5 mb 0.02 in0.5 mm 0.12 in/hr3.0 mm/hr 0.21 in5.3 mm
04:00 AM 41.8°F5.4°C 40.7°F4.8°C 96% 0.1 mph NNW0.2 kmh NNW -- 29.91 in1012.9 mb 0.01 in0.3 mm 0.01 in/hr0.3 mm/hr 0.22 in5.6 mm
04:10 AM 41.8°F5.4°C 40.7°F4.8°C 96% Calm Calm -- 29.91 in1012.9 mb 0.02 in0.5 mm 0.12 in/hr3.0 mm/hr 0.24 in6.1 mm
04:20 AM 41.9°F5.5°C 40.8°F4.9°C 96% 0.5 mph NNW0.8 kmh NNW 2.0 mph3.2 kmh 29.90 in1012.5 mb 0.02 in0.5 mm 0.12 in/hr3.0 mm/hr 0.25 in6.4 mm
04:30 AM 41.9°F5.5°C 40.8°F4.9°C 96% 0.5 mph NE0.8 kmh NE 2.0 mph3.2 kmh 29.90 in1012.5 mb 0.01 in0.3 mm 0.06 in/hr1.5 mm/hr 0.26 in6.6 mm
04:40 AM 41.9°F5.5°C 40.9°F4.9°C 96% 1.2 mph NE1.9 kmh NE 2.0 mph3.2 kmh 29.91 in1012.9 mb 0.01 in0.3 mm 0.06 in/hr1.5 mm/hr 0.27 in6.9 mm
04:50 AM 41.9°F5.5°C 40.8°F4.9°C 96% 0.1 mph NE0.2 kmh NE -- 29.91 in1012.9 mb 0.01 in0.3 mm 0.06 in/hr1.5 mm/hr 0.28 in7.1 mm
05:00 AM 41.9°F5.5°C 40.8°F4.9°C 96% Calm Calm -- 29.91 in1012.9 mb 0.00 in0.0 mm 0.00 in/hr0.0 mm/hr 0.28 in7.1 mm
05:10 AM 41.8°F5.4°C 40.7°F4.8°C 96% 0.2 mph NE0.3 kmh NE -- 29.91 in1012.9 mb 0.00 in0.0 mm 0.00 in/hr0.0 mm/hr 0.28 in7.1 mm
05:20 AM 41.7°F5.4°C 40.6°F4.8°C 96% 0.1 mph NE0.2 kmh NE 1.0 mph1.6 kmh 29.92 in1013.2 mb 0.00 in0.0 mm 0.00 in/hr0.0 mm/hr 0.28 in7.1 mm
05:30 AM 41.6°F5.3°C 40.3°F4.6°C 95% Calm Calm -- 29.92 in1013.2 mb 0.00 in0.0 mm 0.00 in/hr0.0 mm/hr 0.28 in7.1 mm
05:40 AM 41.6°F5.3°C 40.3°F4.6°C 95% Calm Calm -- 29.92 in1013.2 mb 0.00 in0.0 mm 0.00 in/hr0.0 mm/hr 0.28 in7.1 mm
05:50 AM 41.4°F5.2°C 40.1°F4.5°C 95% Calm Calm -- 29.91 in1012.9 mb 0.00 in0.0 mm 0.00 in/hr0.0 mm/hr 0.28 in7.1 mm
06:00 AM 41.3°F5.2°C 40.0°F4.4°C 95% 1.2 mph NE1.9 kmh NE 3.0 mph4.8 kmh 29.92 in1013.2 mb 0.00 in0.0 mm 0.00 in/hr0.0 mm/hr 0.28 in7.1 mm
06:10 AM 41.2°F5.1°C 39.9°F4.4°C 95% 0.7 mph NE1.1 kmh NE 1.0 mph1.6 kmh 29.93 in1013.5 mb 0.00 in0.0 mm 0.00 in/hr0.0 mm/hr 0.28 in7.1 mm
06:20 AM 41.0°F5.0°C 39.7°F4.3°C 95% 1.0 mph NE1.6 kmh NE 4.0 mph6.4 kmh 29.93 in1013.5 mb 0.00 in0.0 mm 0.00 in/hr0.0 mm/hr 0.28 in7.1 mm
06:30 AM 40.8°F4.9°C 39.5°F4.2°C 95% 1.7 mph NE2.7 kmh NE 3.0 mph4.8 kmh 29.93 in1013.5 mb 0.00 in0.0 mm 0.00 in/hr0.0 mm/hr 0.28 in7.1 mm
06:40 AM 40.7°F4.8°C 39.4°F4.1°C 95% 2.3 mph NE3.7 kmh NE 3.0 mph4.8 kmh 29.93 in1013.5 mb 0.00 in0.0 mm 0.00 in/hr0.0 mm/hr 0.28 in7.1 mm
06:50 AM 40.6°F4.8°C 39.3°F4.1°C 95% 2.1 mph NE3.4 kmh NE 2.0 mph3.2 kmh 29.93 in1013.5 mb 0.00 in0.0 mm 0.00 in/hr0.0 mm/hr 0.28 in7.1 mm
07:00 AM 40.6°F4.8°C 39.3°F4.1°C 95% Calm Calm -- 29.94 in1013.9 mb 0.01 in0.3 mm 0.01 in/hr0.3 mm/hr 0.28 in7.1 mm
07:10 AM 40.6°F4.8°C 39.3°F4.1°C 95% Calm Calm -- 29.94 in1013.9 mb 0.00 in0.0 mm 0.00 in/hr0.0 mm/hr 0.28 in7.1 mm
07:20 AM 40.6°F4.8°C 39.3°F4.1°C 95% Calm Calm -- 29.94 in1013.9 mb 0.00 in0.0 mm 0.00 in/hr0.0 mm/hr 0.28 in7.1 mm
07:30 AM 40.5°F4.7°C 39.2°F4.0°C 95% Calm Calm -- 29.94 in1013.9 mb 0.00 in0.0 mm 0.00 in/hr0.0 mm/hr 0.28 in7.1 mm
07:40 AM 40.3°F4.6°C 39.0°F3.9°C 95% 0.1 mph NE0.2 kmh NE 1.0 mph1.6 kmh 29.95 in1014.2 mb 0.00 in0.0 mm 0.00 in/hr0.0 mm/hr 0.28 in7.1 mm
07:50 AM 40.0°F4.4°C 38.7°F3.7°C 95% Calm Calm 1.0 mph1.6 kmh 29.95 in1014.2 mb 0.00 in0.0 mm 0.00 in/hr0.0 mm/hr 0.28 in7.1 mm
08:00 AM 39.8°F4.3°C 38.5°F3.6°C 95% 0.3 mph NE0.5 kmh NE 1.0 mph1.6 kmh 29.95 in1014.2 mb 0.00 in0.0 mm 0.00 in/hr0.0 mm/hr 0.28 in7.1 mm
08:10 AM 39.8°F4.3°C 38.4°F3.6°C 95% Calm Calm -- 29.95 in1014.2 mb 0.00 in0.0 mm 0.00 in/hr0.0 mm/hr 0.28 in7.1 mm
08:20 AM 39.9°F4.4°C 38.8°F3.8°C 96% Calm Calm -- 29.96 in1014.6 mb 0.00 in0.0 mm 0.00 in/hr0.0 mm/hr 0.28 in7.1 mm
08:30 AM 40.1°F4.5°C 39.1°F3.9°C 96% 0.1 mph NE0.2 kmh NE 2.0 mph3.2 kmh 29.96 in1014.6 mb 0.00 in0.0 mm 0.00 in/hr0.0 mm/hr 0.28 in7.1 mm
08:40 AM 40.2°F4.6°C 39.2°F4.0°C 96% Calm Calm -- 29.97 in1014.9 mb 0.00 in0.0 mm 0.00 in/hr0.0 mm/hr 0.28 in7.1 mm
08:50 AM 40.4°F4.7°C 39.4°F4.1°C 96% 0.8 mph NE1.3 kmh NE 2.0 mph3.2 kmh 29.97 in1014.9 mb 0.00 in0.0 mm 0.00 in/hr0.0 mm/hr 0.28 in7.1 mm
09:00 AM 40.6°F4.8°C 39.5°F4.2°C 96% 0.6 mph NE1.0 kmh NE 2.0 mph3.2 kmh 29.98 in1015.2 mb 0.00 in0.0 mm 0.00 in/hr0.0 mm/hr 0.28 in7.1 mm
09:10 AM 40.9°F4.9°C 39.8°F4.3°C 96% 0.6 mph NE1.0 kmh NE 2.0 mph3.2 kmh 29.98 in1015.2 mb 0.00 in0.0 mm 0.00 in/hr0.0 mm/hr 0.28 in7.1 mm
09:20 AM 41.1°F5.1°C 40.1°F4.5°C 96% 0.1 mph NE0.2 kmh NE -- 29.98 in1015.2 mb 0.00 in0.0 mm 0.00 in/hr0.0 mm/hr 0.28 in7.1 mm
09:30 AM 41.4°F5.2°C 40.1°F4.5°C 95% 1.2 mph NE1.9 kmh NE 3.0 mph4.8 kmh 29.98 in1015.2 mb 0.00 in0.0 mm 0.00 in/hr0.0 mm/hr 0.28 in7.1 mm
09:40 AM 41.8°F5.4°C 40.5°F4.7°C 95% 1.6 mph NE2.6 kmh NE 2.0 mph3.2 kmh 29.99 in1015.6 mb 0.00 in0.0 mm 0.00 in/hr0.0 mm/hr 0.28 in7.1 mm
09:50 AM 42.2°F5.7°C 40.8°F4.9°C 95% 1.6 mph NE2.6 kmh NE 3.0 mph4.8 kmh 29.99 in1015.6 mb 0.00 in0.0 mm 0.00 in/hr0.0 mm/hr 0.28 in7.1 mm
10:00 AM 42.5°F5.8°C 41.2°F5.1°C 95% 1.3 mph NNE2.1 kmh NNE 2.0 mph3.2 kmh 29.99 in1015.6 mb 0.00 in0.0 mm 0.00 in/hr0.0 mm/hr 0.28 in7.1 mm
10:10 AM 42.6°F5.9°C 41.0°F5.0°C 94% 0.3 mph NNE0.5 kmh NNE 2.0 mph3.2 kmh 29.99 in1015.6 mb 0.00 in0.0 mm 0.00 in/hr0.0 mm/hr 0.28 in7.1 mm
10:20 AM 42.8°F6.0°C 41.2°F5.1°C 94% 1.3 mph N2.1 kmh N 3.0 mph4.8 kmh 30.00 in1015.9 mb 0.00 in0.0 mm 0.00 in/hr0.0 mm/hr 0.28 in7.1 mm
10:30 AM 43.0°F6.1°C 41.1°F5.1°C 93% 2.1 mph N3.4 kmh N 5.0 mph8.0 kmh 30.00 in1015.9 mb 0.00 in0.0 mm 0.00 in/hr0.0 mm/hr 0.28 in7.1 mm
10:40 AM 43.5°F6.4°C 41.6°F5.3°C 93% 0.3 mph N0.5 kmh N 3.0 mph4.8 kmh 29.99 in1015.6 mb 0.00 in0.0 mm 0.00 in/hr0.0 mm/hr 0.28 in7.1 mm
10:50 AM 43.9°F6.6°C 41.7°F5.4°C 92% 0.3 mph N0.5 kmh N -- 29.99 in1015.6 mb 0.00 in0.0 mm 0.00 in/hr0.0 mm/hr 0.28 in7.1 mm
11:00 AM 44.1°F6.7°C 42.0°F5.6°C 92% 0.2 mph N0.3 kmh N -- 29.99 in1015.6 mb 0.00 in0.0 mm 0.00 in/hr0.0 mm/hr 0.28 in7.1 mm
11:10 AM 44.4°F6.9°C 41.9°F5.5°C 91% 0.2 mph N0.3 kmh N 3.0 mph4.8 kmh 29.99 in1015.6 mb 0.00 in0.0 mm 0.00 in/hr0.0 mm/hr 0.28 in7.1 mm
11:20 AM 44.4°F6.9°C 41.9°F5.5°C 91% 0.1 mph N0.2 kmh N 1.0 mph1.6 kmh 29.99 in1015.6 mb 0.00 in0.0 mm 0.00 in/hr0.0 mm/hr 0.28 in7.1 mm
11:30 AM 44.6°F7.0°C 41.9°F5.5°C 90% Calm Calm -- 29.99 in1015.6 mb 0.00 in0.0 mm 0.00 in/hr0.0 mm/hr 0.28 in7.1 mm
11:40 AM 45.2°F7.3°C 42.2°F5.7°C 89% 1.2 mph N1.9 kmh N 3.0 mph4.8 kmh 29.99 in1015.6 mb 0.00 in0.0 mm 0.00 in/hr0.0 mm/hr 0.28 in7.1 mm
11:50 AM 45.0°F7.2°C 41.4°F5.2°C 87% Calm Calm 1.0 mph1.6 kmh 29.98 in1015.2 mb 0.00 in0.0 mm 0.00 in/hr0.0 mm/hr 0.28 in7.1 mm
12:01 PM 45.7°F7.6°C 42.4°F5.8°C 88% 0.7 mph N1.1 kmh N 2.0 mph3.2 kmh 29.98 in1015.2 mb 0.00 in0.0 mm 0.00 in/hr0.0 mm/hr 0.28 in7.1 mm
12:21 PM 46.2°F7.9°C 41.1°F5.1°C 82% 0.2 mph N0.3 kmh N -- 29.98 in1015.2 mb 0.00 in0.0 mm 0.00 in/hr0.0 mm/hr 0.28 in7.1 mm
12:31 PM 46.2°F7.9°C 41.0°F5.0°C 82% Calm Calm -- 29.97 in1014.9 mb 0.00 in0.0 mm 0.00 in/hr0.0 mm/hr 0.28 in7.1 mm
12:40 PM 46.3°F7.9°C 41.1°F5.1°C 82% 0.4 mph N0.6 kmh N 2.0 mph3.2 kmh 29.97 in1014.9 mb 0.00 in0.0 mm 0.00 in/hr0.0 mm/hr 0.28 in7.1 mm
12:50 PM 46.2°F7.9°C 41.0°F5.0°C 82% 0.1 mph NNE0.2 kmh NNE 1.0 mph1.6 kmh 29.97 in1014.9 mb 0.00 in0.0 mm 0.00 in/hr0.0 mm/hr 0.28 in7.1 mm
01:00 PM 46.1°F7.8°C 40.9°F4.9°C 82% Calm Calm -- 29.97 in1014.9 mb 0.00 in0.0 mm 0.00 in/hr0.0 mm/hr 0.28 in7.1 mm
01:10 PM 46.0°F7.8°C 40.8°F4.9°C 82% Calm Calm -- 29.97 in1014.9 mb 0.00 in0.0 mm 0.00 in/hr0.0 mm/hr 0.28 in7.1 mm
01:20 PM 45.9°F7.7°C 40.7°F4.8°C 82% 0.1 mph NNE0.2 kmh NNE 1.0 mph1.6 kmh 29.96 in1014.6 mb 0.00 in0.0 mm 0.00 in/hr0.0 mm/hr 0.28 in7.1 mm
01:30 PM 45.7°F7.6°C 40.6°F4.8°C 82% Calm Calm -- 29.96 in1014.6 mb 0.00 in0.0 mm 0.00 in/hr0.0 mm/hr 0.28 in7.1 mm
01:40 PM 45.6°F7.6°C 40.4°F4.7°C 82% Calm Calm -- 29.96 in1014.6 mb 0.00 in0.0 mm 0.00 in/hr0.0 mm/hr 0.28 in7.1 mm
01:50 PM 45.6°F7.6°C 40.7°F4.8°C 83% Calm Calm -- 29.96 in1014.6 mb 0.00 in0.0 mm 0.00 in/hr0.0 mm/hr 0.28 in7.1 mm
02:00 PM 45.7°F7.6°C 40.5°F4.7°C 82% Calm Calm -- 29.96 in1014.6 mb 0.00 in0.0 mm 0.00 in/hr0.0 mm/hr 0.28 in7.1 mm
02:10 PM 45.8°F7.7°C 40.9°F4.9°C 83% 0.4 mph NNE0.6 kmh NNE 2.0 mph3.2 kmh 29.96 in1014.6 mb 0.00 in0.0 mm 0.00 in/hr0.0 mm/hr 0.28 in7.1 mm
02:20 PM 45.9°F7.7°C 41.0°F5.0°C 83% Calm Calm -- 29.96 in1014.6 mb 0.00 in0.0 mm 0.00 in/hr0.0 mm/hr 0.28 in7.1 mm
02:40 PM 45.9°F7.7°C 41.0°F5.0°C 83% Calm Calm 1.0 mph1.6 kmh 29.96 in1014.6 mb 0.00 in0.0 mm 0.00 in/hr0.0 mm/hr 0.28 in7.1 mm
02:50 PM 45.9°F7.7°C 41.0°F5.0°C 83% 0.2 mph NNE0.3 kmh NNE 1.0 mph1.6 kmh 29.96 in1014.6 mb 0.00 in0.0 mm 0.00 in/hr0.0 mm/hr 0.28 in7.1 mm
03:00 PM 45.8°F7.7°C 40.9°F4.9°C 83% Calm Calm -- 29.96 in1014.6 mb 0.00 in0.0 mm 0.00 in/hr0.0 mm/hr 0.28 in7.1 mm
03:10 PM 45.7°F7.6°C 40.8°F4.9°C 83% Calm Calm -- 29.96 in1014.6 mb 0.00 in0.0 mm 0.00 in/hr0.0 mm/hr 0.28 in7.1 mm
03:20 PM 45.6°F7.6°C 41.1°F5.1°C 84% 0.5 mph NNE0.8 kmh NNE -- 29.95 in1014.2 mb 0.00 in0.0 mm 0.00 in/hr0.0 mm/hr 0.28 in7.1 mm
03:30 PM 45.5°F7.5°C 40.6°F4.8°C 83% Calm Calm 1.0 mph1.6 kmh 29.95 in1014.2 mb 0.00 in0.0 mm 0.00 in/hr0.0 mm/hr 0.28 in7.1 mm
03:40 PM 45.3°F7.4°C 40.7°F4.8°C 84% 0.1 mph NNE0.2 kmh NNE -- 29.95 in1014.2 mb 0.00 in0.0 mm 0.00 in/hr0.0 mm/hr 0.28 in7.1 mm
03:50 PM 45.1°F7.3°C 40.6°F4.8°C 84% Calm Calm -- 29.95 in1014.2 mb 0.00 in0.0 mm 0.00 in/hr0.0 mm/hr 0.28 in7.1 mm
04:00 PM 44.9°F7.2°C 40.7°F4.8°C 85% Calm Calm -- 29.95 in1014.2 mb 0.00 in0.0 mm 0.00 in/hr0.0 mm/hr 0.28 in7.1 mm
04:10 PM 44.7°F7.1°C 40.5°F4.7°C 85% Calm Calm -- 29.95 in1014.2 mb 0.00 in0.0 mm 0.00 in/hr0.0 mm/hr 0.28 in7.1 mm
04:20 PM 44.5°F6.9°C 40.3°F4.6°C 85% Calm Calm -- 29.95 in1014.2 mb 0.00 in0.0 mm 0.00 in/hr0.0 mm/hr 0.28 in7.1 mm
04:30 PM 44.3°F6.8°C 40.7°F4.8°C 87% Calm Calm -- 29.95 in1014.2 mb 0.00 in0.0 mm 0.00 in/hr0.0 mm/hr 0.28 in7.1 mm
04:40 PM 44.0°F6.7°C 40.4°F4.7°C 87% Calm Calm -- 29.95 in1014.2 mb 0.00 in0.0 mm 0.00 in/hr0.0 mm/hr 0.28 in7.1 mm
04:50 PM 43.8°F6.6°C 40.5°F4.7°C 88% Calm Calm -- 29.95 in1014.2 mb 0.00 in0.0 mm 0.00 in/hr0.0 mm/hr 0.28 in7.1 mm
05:00 PM 43.6°F6.4°C 40.3°F4.6°C 88% Calm Calm -- 29.95 in1014.2 mb 0.00 in0.0 mm 0.00 in/hr0.0 mm/hr 0.28 in7.1 mm
05:10 PM 43.5°F6.4°C 40.4°F4.7°C 89% 0.4 mph NNE0.6 kmh NNE 2.0 mph3.2 kmh 29.95 in1014.2 mb 0.00 in0.0 mm 0.00 in/hr0.0 mm/hr 0.28 in7.1 mm
05:20 PM 43.2°F6.2°C 40.2°F4.6°C 89% 0.6 mph NNE1.0 kmh NNE 2.0 mph3.2 kmh 29.94 in1013.9 mb 0.00 in0.0 mm 0.00 in/hr0.0 mm/hr 0.28 in7.1 mm
05:30 PM 43.0°F6.1°C 40.3°F4.6°C 90% Calm Calm -- 29.94 in1013.9 mb 0.00 in0.0 mm 0.00 in/hr0.0 mm/hr 0.28 in7.1 mm
05:40 PM 42.8°F6.0°C 40.1°F4.5°C 90% Calm Calm -- 29.95 in1014.2 mb 0.00 in0.0 mm 0.00 in/hr0.0 mm/hr 0.28 in7.1 mm
05:50 PM 42.7°F5.9°C 39.9°F4.4°C 90% Calm Calm -- 29.94 in1013.9 mb 0.00 in0.0 mm 0.00 in/hr0.0 mm/hr 0.28 in7.1 mm
06:00 PM 42.4°F5.8°C 39.7°F4.3°C 90% Calm Calm -- 29.94 in1013.9 mb 0.00 in0.0 mm 0.00 in/hr0.0 mm/hr 0.28 in7.1 mm
06:10 PM 42.2°F5.7°C 39.5°F4.2°C 90% Calm Calm -- 29.95 in1014.2 mb 0.00 in0.0 mm 0.00 in/hr0.0 mm/hr 0.28 in7.1 mm
06:20 PM 41.9°F5.5°C 39.5°F4.2°C 91% Calm Calm -- 29.95 in1014.2 mb 0.00 in0.0 mm 0.00 in/hr0.0 mm/hr 0.28 in7.1 mm
06:30 PM 41.7°F5.4°C 39.3°F4.1°C 91% 0.3 mph NNE0.5 kmh NNE 1.0 mph1.6 kmh 29.95 in1014.2 mb 0.00 in0.0 mm 0.00 in/hr0.0 mm/hr 0.28 in7.1 mm
06:40 PM 41.4°F5.2°C 39.0°F3.9°C 91% Calm Calm -- 29.95 in1014.2 mb 0.00 in0.0 mm 0.00 in/hr0.0 mm/hr 0.28 in7.1 mm
06:50 PM 41.1°F5.1°C 39.0°F3.9°C 92% Calm Calm -- 29.95 in1014.2 mb 0.00 in0.0 mm 0.00 in/hr0.0 mm/hr 0.28 in7.1 mm
07:00 PM 40.8°F4.9°C 38.7°F3.7°C 92% Calm Calm -- 29.95 in1014.2 mb 0.00 in0.0 mm 0.00 in/hr0.0 mm/hr 0.28 in7.1 mm
07:10 PM 40.6°F4.8°C 38.5°F3.6°C 92% Calm Calm -- 29.96 in1014.6 mb 0.00 in0.0 mm 0.00 in/hr0.0 mm/hr 0.28 in7.1 mm
07:20 PM 40.4°F4.7°C 38.5°F3.6°C 93% Calm Calm -- 29.96 in1014.6 mb 0.00 in0.0 mm 0.00 in/hr0.0 mm/hr 0.28 in7.1 mm
07:30 PM 40.1°F4.5°C 38.0°F3.3°C 92% Calm Calm -- 29.96 in1014.6 mb 0.00 in0.0 mm 0.00 in/hr0.0 mm/hr 0.28 in7.1 mm
07:40 PM 39.9°F4.4°C 38.0°F3.3°C 93% Calm Calm 1.0 mph1.6 kmh 29.96 in1014.6 mb 0.00 in0.0 mm 0.00 in/hr0.0 mm/hr 0.28 in7.1 mm
07:50 PM 39.9°F4.4°C 38.3°F3.5°C 94% 0.6 mph NNE1.0 kmh NNE 2.0 mph3.2 kmh 29.96 in1014.6 mb 0.00 in0.0 mm 0.00 in/hr0.0 mm/hr 0.28 in7.1 mm
08:00 PM 39.9°F4.4°C 38.0°F3.3°C 93% Calm Calm -- 29.96 in1014.6 mb 0.00 in0.0 mm 0.00 in/hr0.0 mm/hr 0.28 in7.1 mm
08:10 PM 39.7°F4.3°C 37.8°F3.2°C 93% Calm Calm -- 29.95 in1014.2 mb 0.00 in0.0 mm 0.00 in/hr0.0 mm/hr 0.28 in7.1 mm
08:20 PM 39.4°F4.1°C 37.6°F3.1°C 93% Calm Calm -- 29.95 in1014.2 mb 0.00 in0.0 mm 0.00 in/hr0.0 mm/hr 0.28 in7.1 mm
08:30 PM 39.2°F4.0°C 37.3°F2.9°C 93% Calm Calm -- 29.96 in1014.6 mb 0.00 in0.0 mm 0.00 in/hr0.0 mm/hr 0.28 in7.1 mm
08:40 PM 38.9°F3.8°C 37.1°F2.8°C 93% Calm Calm -- 29.96 in1014.6 mb 0.00 in0.0 mm 0.00 in/hr0.0 mm/hr 0.28 in7.1 mm
08:50 PM 38.7°F3.7°C 36.9°F2.7°C 93% Calm Calm -- 29.95 in1014.2 mb 0.00 in0.0 mm 0.00 in/hr0.0 mm/hr 0.28 in7.1 mm
09:00 PM 38.7°F3.7°C 37.1°F2.8°C 94% Calm Calm 1.0 mph1.6 kmh 29.95 in1014.2 mb 0.00 in0.0 mm 0.00 in/hr0.0 mm/hr 0.28 in7.1 mm
09:10 PM 38.8°F3.8°C 37.5°F3.1°C 95% 0.2 mph NNE0.3 kmh NNE 1.0 mph1.6 kmh 29.95 in1014.2 mb 0.00 in0.0 mm 0.00 in/hr0.0 mm/hr 0.28 in7.1 mm
09:20 PM 38.8°F3.8°C 37.5°F3.1°C 95% 0.4 mph NNE0.6 kmh NNE 1.0 mph1.6 kmh 29.94 in1013.9 mb 0.00 in0.0 mm 0.00 in/hr0.0 mm/hr 0.28 in7.1 mm
09:30 PM 38.8°F3.8°C 37.5°F3.1°C 95% Calm Calm -- 29.95 in1014.2 mb 0.00 in0.0 mm 0.00 in/hr0.0 mm/hr 0.28 in7.1 mm
09:40 PM 38.7°F3.7°C 37.1°F2.8°C 94% Calm Calm -- 29.95 in1014.2 mb 0.00 in0.0 mm 0.00 in/hr0.0 mm/hr 0.28 in7.1 mm
09:50 PM 38.5°F3.6°C 36.9°F2.7°C 94% Calm Calm -- 29.95 in1014.2 mb 0.00 in0.0 mm 0.00 in/hr0.0 mm/hr 0.28 in7.1 mm
10:00 PM 38.5°F3.6°C 37.2°F2.9°C 95% 0.5 mph NNE0.8 kmh NNE 2.0 mph3.2 kmh 29.95 in1014.2 mb 0.00 in0.0 mm 0.00 in/hr0.0 mm/hr 0.28 in7.1 mm
10:10 PM 38.6°F3.7°C 37.3°F2.9°C 95% Calm Calm -- 29.95 in1014.2 mb 0.00 in0.0 mm 0.00 in/hr0.0 mm/hr 0.28 in7.1 mm
10:20 PM 38.6°F3.7°C 37.3°F2.9°C 95% Calm Calm -- 29.95 in1014.2 mb 0.00 in0.0 mm 0.00 in/hr0.0 mm/hr 0.28 in7.1 mm
10:30 PM 38.7°F3.7°C 37.4°F3.0°C 95% 1.9 mph NNE3.1 kmh NNE 4.0 mph6.4 kmh 29.95 in1014.2 mb 0.00 in0.0 mm 0.00 in/hr0.0 mm/hr 0.28 in7.1 mm
10:40 PM 39.0°F3.9°C 37.4°F3.0°C 94% 1.9 mph NNE3.1 kmh NNE 3.0 mph4.8 kmh 29.95 in1014.2 mb 0.00 in0.0 mm 0.00 in/hr0.0 mm/hr 0.28 in7.1 mm
10:50 PM 39.2°F4.0°C 37.6°F3.1°C 94% 0.2 mph NNE0.3 kmh NNE 2.0 mph3.2 kmh 29.94 in1013.9 mb 0.00 in0.0 mm 0.00 in/hr0.0 mm/hr 0.28 in7.1 mm
11:00 PM 39.5°F4.2°C 37.6°F3.1°C 93% 2.3 mph NNE3.7 kmh NNE 5.0 mph8.0 kmh 29.94 in1013.9 mb 0.00 in0.0 mm 0.00 in/hr0.0 mm/hr 0.28 in7.1 mm
11:10 PM 39.9°F4.4°C 38.0°F3.3°C 93% 2.7 mph NNE4.3 kmh NNE 4.0 mph6.4 kmh 29.94 in1013.9 mb 0.00 in0.0 mm 0.00 in/hr0.0 mm/hr 0.28 in7.1 mm
11:20 PM 40.0°F4.4°C 37.9°F3.3°C 92% 1.8 mph NNE2.9 kmh NNE 2.0 mph3.2 kmh 29.94 in1013.9 mb 0.00 in0.0 mm 0.00 in/hr0.0 mm/hr 0.28 in7.1 mm
11:30 PM 39.9°F4.4°C 37.8°F3.2°C 92% 1.9 mph NNE3.1 kmh NNE 3.0 mph4.8 kmh 29.94 in1013.9 mb 0.00 in0.0 mm 0.00 in/hr0.0 mm/hr 0.28 in7.1 mm
11:40 PM 39.9°F4.4°C 37.7°F3.2°C 92% 0.8 mph NNE1.3 kmh NNE 3.0 mph4.8 kmh 29.94 in1013.9 mb 0.00 in0.0 mm 0.00 in/hr0.0 mm/hr 0.28 in7.1 mm
11:50 PM 39.8°F4.3°C 37.4°F3.0°C 91% 3.2 mph NNE5.1 kmh NNE 4.0 mph6.4 kmh 29.94 in1013.9 mb 0.00 in0.0 mm 0.00 in/hr0.0 mm/hr 0.28 in7.1 mm